Time;durP1;ratioP1;P1;durP2;ratioP2;P2;SDS_P1;SDS_P2;PMS_P1;PMS_P2;Temp;Humidity;BMP_temperature;BMP_pressure;BME280_temperature;BME280_humidity;BME280_pressure;Samples;Min_cycle;Max_cycle;Signal;HPM_P1;HPM_P2
2021/11/24 00:00:17;;;;;;;34.03;20.67;;;;;;;-2.87;100.00;96609.53;1022580;28;20031;-70
2021/11/24 00:00:48;;;;;;;35.30;22.07;;;;;;;-2.83;100.00;96618.53;1026110;28;20038;-70
2021/11/24 00:01:18;;;;;;;36.67;20.20;;;;;;;-2.85;100.00;96620.44;1025759;28;20092;-71
2021/11/24 00:01:49;;;;;;;36.60;21.07;;;;;;;-2.85;100.00;96616.13;1022554;29;20031;-71
2021/11/24 00:02:19;;;;;;;34.37;20.47;;;;;;;-2.85;100.00;96617.88;1022513;28;20450;-69
2021/11/24 00:02:50;;;;;;;32.27;20.27;;;;;;;-2.95;100.00;96606.94;1022222;28;20185;-71
2021/11/24 00:03:20;;;;;;;33.60;20.70;;;;;;;-2.95;100.00;96606.94;1026715;28;20269;-71
2021/11/24 00:03:51;;;;;;;31.17;20.67;;;;;;;-2.92;100.00;96619.47;1027925;28;20035;-72
2021/11/24 00:04:21;;;;;;;40.70;21.23;;;;;;;-2.91;100.00;96618.50;1026252;28;20040;-67
2021/11/24 00:04:52;;;;;;;38.57;21.83;;;;;;;-2.98;100.00;96609.84;1024599;28;20034;-72
2021/11/24 00:05:22;;;;;;;38.70;21.83;;;;;;;-2.93;100.00;96620.44;1022333;28;20019;-70
2021/11/24 00:05:53;;;;;;;36.50;21.93;;;;;;;-2.96;100.00;96618.97;1034677;28;20060;-72
2021/11/24 00:06:23;;;;;;;37.43;21.63;;;;;;;-2.95;100.00;96612.06;1034297;28;20022;-72
2021/11/24 00:06:54;;;;;;;42.03;22.03;;;;;;;-2.94;100.00;96618.81;1038246;28;20088;-72
2021/11/24 00:07:24;;;;;;;36.07;20.63;;;;;;;-3.02;100.00;96606.75;1034405;28;20013;-72
2021/11/24 00:07:55;;;;;;;35.40;20.87;;;;;;;-3.06;100.00;96604.66;1026191;28;20034;-72
2021/11/24 00:08:25;;;;;;;34.33;21.30;;;;;;;-3.00;100.00;96620.25;1022661;28;20035;-73
2021/11/24 00:08:56;;;;;;;36.63;21.30;;;;;;;-3.10;100.00;96601.59;1028896;28;20050;-72
2021/11/24 00:09:26;;;;;;;35.73;21.30;;;;;;;-3.00;100.00;96619.44;1029694;28;20034;-72
2021/11/24 00:09:56;;;;;;;36.20;20.97;;;;;;;-3.02;100.00;96613.66;1030632;28;20493;-73
2021/11/24 00:10:32;;;;;;;40.73;22.27;;;;;;;-3.02;100.00;96617.00;1029607;28;20034;-71
2021/11/24 00:11:02;;;;;;;37.75;20.70;;;;;;;-3.02;100.00;96619.59;1024391;28;20030;-70
2021/11/24 00:11:33;;;;;;;38.43;21.83;;;;;;;-3.02;100.00;96621.34;1031123;28;20386;-73
2021/11/24 00:12:04;;;;;;;40.00;21.77;;;;;;;-3.08;100.00;96608.19;1025928;28;20034;-72
2021/11/24 00:12:34;;;;;;;33.70;20.37;;;;;;;-3.02;100.00;96626.47;1030862;28;20038;-71
2021/11/24 00:13:05;;;;;;;41.10;21.97;;;;;;;-3.02;100.00;96616.22;1030747;28;20030;-73
2021/11/24 00:13:36;;;;;;;35.40;21.10;;;;;;;-3.02;100.00;96618.78;1030292;28;20471;-72
2021/11/24 00:14:06;;;;;;;39.50;22.27;;;;;;;-3.02;100.00;96623.91;1033978;28;20081;-72
2021/11/24 00:14:37;;;;;;;41.17;21.63;;;;;;;-3.02;100.00;96618.78;1036448;28;20030;-72
2021/11/24 00:15:08;;;;;;;37.90;22.40;;;;;;;-3.06;100.00;96612.34;1038141;28;20041;-72
2021/11/24 00:15:38;;;;;;;40.97;22.98;;;;;;;-3.03;100.00;96622.31;1034310;28;20914;-73
2021/11/24 00:16:09;;;;;;;45.23;23.33;;;;;;;-3.03;100.00;96619.75;1030322;28;20080;-72
2021/11/24 00:16:39;;;;;;;46.00;23.03;;;;;;;-3.14;100.00;96608.81;1026421;28;20027;-72
2021/11/24 00:17:10;;;;;;;46.63;25.07;;;;;;;-3.05;100.00;96621.66;1030478;28;20625;-73
2021/11/24 00:17:40;;;;;;;45.30;25.00;;;;;;;-3.07;100.00;96619.25;1025915;28;20038;-70
2021/11/24 00:18:11;;;;;;;43.40;25.30;;;;;;;-3.10;100.00;96617.81;1023867;28;20491;-71
2021/11/24 00:18:41;;;;;;;46.97;25.77;;;;;;;-3.12;100.00;96612.03;1026050;28;20039;-71
2021/11/24 00:19:12;;;;;;;51.30;27.20;;;;;;;-3.17;100.00;96611.69;1030361;28;20077;-73
2021/11/24 00:19:43;;;;;;;60.03;31.30;;;;;;;-3.12;100.00;96624.03;1029268;28;20603;-71
2021/11/24 00:20:13;;;;;;;60.03;31.65;;;;;;;-3.16;100.00;96623.56;1022273;29;20078;-72
2021/11/24 00:20:44;;;;;;;62.77;30.70;;;;;;;-3.17;100.00;96619.38;1022225;28;20466;-71
2021/11/24 00:21:14;;;;;;;52.77;28.27;;;;;;;-3.17;100.00;96616.03;1026332;28;20015;-73
2021/11/24 00:21:45;;;;;;;49.40;27.83;;;;;;;-3.17;100.00;96619.38;1030047;28;20026;-72
2021/11/24 00:22:15;;;;;;;50.73;26.97;;;;;;;-3.21;100.00;96605.25;1038898;28;20726;-72
2021/11/24 00:22:46;;;;;;;49.17;27.23;;;;;;;-3.21;100.00;96605.25;1030459;28;20076;-73
2021/11/24 00:23:16;;;;;;;48.90;25.73;;;;;;;-3.13;100.00;96615.53;1030142;28;20029;-73
2021/11/24 00:23:47;;;;;;;52.33;28.30;;;;;;;-3.20;100.00;96601.72;1027321;28;20038;-73
2021/11/24 00:24:17;;;;;;;52.60;28.00;;;;;;;-3.12;100.00;96616.34;1034598;28;20142;-73
2021/11/24 00:24:48;;;;;;;44.07;25.80;;;;;;;-3.12;100.00;96617.16;1034611;28;20026;-71
2021/11/24 00:25:18;;;;;;;43.20;25.37;;;;;;;-3.13;100.00;96604.47;1035992;28;20026;-72
2021/11/24 00:25:49;;;;;;;41.50;25.20;;;;;;;-3.12;100.00;96606.91;1026472;28;20517;-71
2021/11/24 00:26:19;;;;;;;49.03;26.40;;;;;;;-3.10;100.00;96610.09;1030696;28;20034;-73
2021/11/24 00:26:50;;;;;;;40.17;23.67;;;;;;;-3.17;100.00;96603.97;1025965;28;20022;-71
2021/11/24 00:27:20;;;;;;;47.13;25.47;;;;;;;-3.09;100.00;96606.56;1022324;28;20058;-72
2021/11/24 00:27:50;;;;;;;46.97;26.00;;;;;;;-3.17;100.00;96596.28;1026423;28;20030;-72
2021/11/24 00:28:21;;;;;;;44.50;25.03;;;;;;;-3.09;100.00;96604.00;1019756;29;20083;-73
2021/11/24 00:28:51;;;;;;;50.67;25.87;;;;;;;-3.18;100.00;96594.69;1022396;28;20039;-72
2021/11/24 00:29:22;;;;;;;59.83;29.93;;;;;;;-3.09;100.00;96611.69;1026288;28;20037;-73
2021/11/24 00:29:54;;;;;;;60.83;30.20;;;;;;;-3.09;100.00;96611.69;1026301;28;20471;-72
2021/11/24 00:30:25;;;;;;;75.78;36.58;;;;;;;-3.09;100.00;96609.13;1031164;28;20026;-73
2021/11/24 00:30:55;;;;;;;76.37;35.80;;;;;;;-3.12;100.00;96606.91;1033737;28;20037;-73
2021/11/24 00:31:27;;;;;;;82.07;38.00;;;;;;;-3.10;100.00;96607.53;1025992;28;20101;-73
2021/11/24 00:31:58;;;;;;;92.95;41.50;;;;;;;-3.15;100.00;96607.22;1023405;28;20422;-73
2021/11/24 00:32:29;;;;;;;89.00;41.53;;;;;;;-3.19;100.00;96593.06;1029096;28;20116;-73
2021/11/24 00:32:59;;;;;;;87.93;41.77;;;;;;;-3.11;100.00;96605.13;1034366;28;20460;-73
2021/11/24 00:33:30;;;;;;;91.50;42.67;;;;;;;-3.09;100.00;96601.44;1026720;28;20046;-73
2021/11/24 00:34:00;;;;;;;85.40;39.73;;;;;;;-3.18;100.00;96591.31;1021850;29;20133;-72
2021/11/24 00:34:31;;;;;;;87.40;39.97;;;;;;;-3.09;100.00;96604.00;1026381;28;20039;-73
2021/11/24 00:35:02;;;;;;;80.73;38.07;;;;;;;-3.10;100.00;96604.16;1030040;28;20030;-72
2021/11/24 00:35:32;;;;;;;85.35;39.85;;;;;;;-3.11;100.00;96605.94;1026087;28;20043;-73
2021/11/24 00:36:03;;;;;;;75.57;38.00;;;;;;;-3.14;100.00;96601.09;1026661;28;20042;-73
2021/11/24 00:36:34;;;;;;;73.90;38.07;;;;;;;-3.13;100.00;96607.84;1022629;28;20035;-72
2021/11/24 00:37:04;;;;;;;76.07;38.40;;;;;;;-3.14;100.00;96602.88;1031960;28;20022;-72
2021/11/24 00:37:35;;;;;;;85.77;41.53;;;;;;;-3.21;100.00;96587.28;1035789;28;20109;-73
2021/11/24 00:38:05;;;;;;;76.93;39.97;;;;;;;-3.18;100.00;96601.59;1030520;28;20026;-73
2021/11/24 00:38:36;;;;;;;72.00;36.80;;;;;;;-3.16;100.00;96602.22;1036363;28;20634;-73
2021/11/24 00:39:06;;;;;;;73.53;37.77;;;;;;;-3.17;100.00;96598.84;1037044;28;20041;-73
2021/11/24 00:39:37;;;;;;;55.43;30.47;;;;;;;-3.22;100.00;96590.00;1026484;28;20140;-73
2021/11/24 00:40:07;;;;;;;63.00;32.30;;;;;;;-3.17;100.00;96603.97;1027063;28;20057;-72
2021/11/24 00:40:38;;;;;;;55.00;31.10;;;;;;;-3.17;100.00;96598.06;1034126;28;20029;-73
2021/11/24 00:41:09;;;;;;;48.22;27.83;;;;;;;-3.19;100.00;96599.97;1029905;28;20477;-73
2021/11/24 00:41:39;;;;;;;47.83;26.87;;;;;;;-3.20;100.00;96599.16;1030937;28;20034;-73
2021/11/24 00:42:10;;;;;;;47.63;29.10;;;;;;;-3.20;100.00;96594.03;1027145;28;20411;-73
2021/11/24 00:42:40;;;;;;;44.93;26.13;;;;;;;-3.21;100.00;96596.75;1024977;28;20042;-71
2021/11/24 00:43:11;;;;;;;42.10;26.10;;;;;;;-3.20;100.00;96595.78;1034493;28;20480;-72
2021/11/24 00:43:41;;;;;;;48.10;26.67;;;;;;;-3.29;100.00;96582.13;1031999;28;20261;-74
2021/11/24 00:44:11;;;;;;;42.57;24.60;;;;;;;-3.22;100.00;96598.53;1030758;28;20447;-72
2021/11/24 00:44:42;;;;;;;44.80;25.63;;;;;;;-3.25;100.00;96586.00;1026286;28;20096;-71
2021/11/24 00:45:13;;;;;;;40.40;24.27;;;;;;;-3.23;100.00;96594.34;1030419;28;20121;-71
2021/11/24 00:45:44;;;;;;;47.20;25.17;;;;;;;-3.23;100.00;96591.75;1035044;28;20034;-73
2021/11/24 00:46:14;;;;;;;45.80;24.90;;;;;;;-3.30;100.00;96582.28;1038702;28;20447;-73
2021/11/24 00:46:45;;;;;;;39.87;24.40;;;;;;;-3.30;100.00;96592.56;1034331;28;20038;-71
2021/11/24 00:47:16;;;;;;;40.67;24.33;;;;;;;-3.27;100.00;96593.03;1026289;28;20031;-71
2021/11/24 00:47:47;;;;;;;38.43;22.10;;;;;;;-3.30;100.00;96588.22;1026329;28;20023;-71
2021/11/24 00:48:17;;;;;;;39.83;23.13;;;;;;;-3.30;100.00;96592.56;1027060;28;20494;-70
2021/11/24 00:48:48;;;;;;;41.87;23.07;;;;;;;-3.35;100.00;96585.31;1027984;28;20031;-71
2021/11/24 00:49:18;;;;;;;42.20;23.17;;;;;;;-3.34;100.00;96586.94;1026082;28;20434;-70
2021/11/24 00:49:49;;;;;;;41.03;21.93;;;;;;;-3.28;100.00;96596.56;1027171;28;20057;-71
2021/11/24 00:50:20;;;;;;;42.13;23.90;;;;;;;-3.32;100.00;96580.69;1034375;28;20512;-72
2021/11/24 00:50:51;;;;;;;39.53;23.27;;;;;;;-3.39;100.00;96571.19;1025332;28;20081;-71
2021/11/24 00:51:21;;;;;;;42.73;23.63;;;;;;;-3.31;100.00;96596.88;1022442;28;20278;-71
2021/11/24 00:51:52;;;;;;;41.37;24.03;;;;;;;-3.36;100.00;96579.38;1022417;29;20027;-72
2021/11/24 00:52:23;;;;;;;40.03;22.73;;;;;;;-3.35;100.00;96577.63;1021926;29;20134;-70
2021/11/24 00:52:53;;;;;;;38.53;22.60;;;;;;;-3.33;100.00;96586.75;1029534;28;20026;-71
2021/11/24 00:53:24;;;;;;;41.33;23.27;;;;;;;-3.28;100.00;96590.66;1034519;28;20480;-72
2021/11/24 00:53:55;;;;;;;46.47;23.93;;;;;;;-3.30;100.00;96580.53;1035033;28;20030;-72
2021/11/24 00:54:25;;;;;;;43.43;22.80;;;;;;;-3.28;100.00;96594.00;1032222;28;20268;-71
2021/11/24 00:54:59;;;;;;;42.83;23.07;;;;;;;-3.29;100.00;96592.38;1022257;29;20471;-71
2021/11/24 00:55:30;;;;;;;39.47;23.02;;;;;;;-3.36;100.00;96579.38;1026489;28;20122;-71
2021/11/24 00:56:00;;;;;;;36.15;22.15;;;;;;;-3.58;100.00;96544.81;1027261;28;20533;-71
2021/11/24 00:56:31;;;;;;;36.73;22.07;;;;;;;-3.66;100.00;96526.81;1023258;29;20035;-72
2021/11/24 00:57:03;;;;;;;38.07;22.40;;;;;;;-3.28;100.00;96593.22;1030104;28;20026;-71
2021/11/24 00:57:34;;;;;;;39.78;23.92;;;;;;;-3.29;100.00;96587.25;1034472;28;20026;-70
2021/11/24 00:58:04;;;;;;;43.10;23.47;;;;;;;-3.33;100.00;96580.81;1034961;28;20531;-71
2021/11/24 00:58:35;;;;;;;40.07;22.80;;;;;;;-3.44;100.00;96565.72;1026399;28;20467;-72
2021/11/24 00:59:06;;;;;;;44.40;23.60;;;;;;;-3.34;100.00;96586.94;1022400;29;20495;-72
2021/11/24 00:59:37;;;;;;;41.72;23.77;;;;;;;-3.44;100.00;96570.84;1026340;28;20102;-71
2021/11/24 01:00:08;;;;;;;40.77;23.00;;;;;;;-3.38;100.00;96581.31;1022437;29;20042;-71
2021/11/24 01:00:39;;;;;;;41.90;23.73;;;;;;;-3.34;100.00;96594.63;1018832;29;20110;-72
2021/11/24 01:01:10;;;;;;;42.70;23.70;;;;;;;-3.36;100.00;96589.63;1024382;28;20035;-71
2021/11/24 01:01:41;;;;;;;36.57;22.20;;;;;;;-3.40;100.00;96583.19;1030238;28;20300;-71
2021/11/24 01:02:12;;;;;;;39.33;23.50;;;;;;;-3.37;100.00;96587.22;1022789;29;20039;-70
2021/11/24 01:02:43;;;;;;;42.73;23.50;;;;;;;-3.45;100.00;96584.66;1030309;28;20273;-71
2021/11/24 01:03:13;;;;;;;39.83;22.77;;;;;;;-3.46;100.00;96576.13;1034577;28;20034;-72
2021/11/24 01:03:44;;;;;;;39.13;21.83;;;;;;;-3.45;100.00;96582.88;1030372;28;20040;-72
2021/11/24 01:04:14;;;;;;;49.93;24.27;;;;;;;-3.37;100.00;96587.22;1038581;28;20033;-72
2021/11/24 01:04:45;;;;;;;41.70;22.97;;;;;;;-3.41;100.00;96584.16;1038651;28;20068;-73
2021/11/24 01:05:15;;;;;;;40.77;23.07;;;;;;;-3.41;100.00;96585.94;1038240;28;20057;-73
2021/11/24 01:05:46;;;;;;;43.60;24.37;;;;;;;-3.40;100.00;96587.53;1030444;28;20073;-73
2021/11/24 01:06:17;;;;;;;39.97;22.33;;;;;;;-3.40;100.00;96593.47;1036078;28;20044;-74
2021/11/24 01:06:47;;;;;;;38.47;22.40;;;;;;;-3.48;100.00;96575.50;1030595;28;20031;-73
2021/11/24 01:07:18;;;;;;;43.23;23.20;;;;;;;-3.40;100.00;96587.53;1023414;29;20047;-74
2021/11/24 01:07:48;;;;;;;37.30;23.70;;;;;;;-3.42;100.00;96589.44;1019260;29;20039;-73
2021/11/24 01:08:19;;;;;;;37.30;22.07;;;;;;;-3.43;100.00;96588.63;1023412;28;20027;-73
2021/11/24 01:08:49;;;;;;;40.93;22.33;;;;;;;-3.42;100.00;96592.00;1035764;28;20037;-73
2021/11/24 01:09:20;;;;;;;35.33;21.70;;;;;;;-3.45;100.00;96589.78;1043354;28;20025;-73
2021/11/24 01:09:51;;;;;;;40.67;23.27;;;;;;;-3.46;100.00;96585.56;1034833;28;20033;-73
2021/11/24 01:10:22;;;;;;;37.33;21.55;;;;;;;-3.45;100.00;96587.22;1027415;28;20049;-73
2021/11/24 01:10:53;;;;;;;37.73;21.50;;;;;;;-3.46;100.00;96588.16;1026619;28;20070;-73
2021/11/24 01:11:23;;;;;;;38.27;22.33;;;;;;;-3.46;100.00;96590.72;1028505;28;20449;-74
2021/11/24 01:11:54;;;;;;;37.87;22.60;;;;;;;-3.50;100.00;96579.16;1027456;28;20127;-72
2021/11/24 01:12:25;;;;;;;41.45;22.45;;;;;;;-3.46;100.00;96588.94;1023140;28;20074;-73
2021/11/24 01:12:55;;;;;;;35.47;21.13;;;;;;;-3.54;100.00;96570.97;1027238;28;20065;-72
2021/11/24 01:13:26;;;;;;;41.57;22.77;;;;;;;-3.47;100.00;96591.69;1023148;29;20027;-73
2021/11/24 01:13:57;;;;;;;34.97;21.70;;;;;;;-3.49;100.00;96591.81;1026772;28;20027;-73
2021/11/24 01:14:27;;;;;;;37.70;22.73;;;;;;;-3.57;100.00;96578.97;1023431;29;20090;-73
2021/11/24 01:14:58;;;;;;;39.23;22.57;;;;;;;-3.55;100.00;96577.06;1025945;28;20434;-71
2021/11/24 01:15:28;;;;;;;38.17;21.70;;;;;;;-3.50;100.00;96586.84;1026905;28;20041;-71
2021/11/24 01:15:59;;;;;;;41.13;23.50;;;;;;;-3.50;100.00;96589.41;1030938;28;20117;-73
2021/11/24 01:16:30;;;;;;;45.83;23.27;;;;;;;-3.57;100.00;96577.19;1037312;28;20112;-73
2021/11/24 01:17:00;;;;;;;37.93;22.53;;;;;;;-3.53;100.00;96587.16;1027515;28;20560;-73
2021/11/24 01:17:31;;;;;;;39.77;23.33;;;;;;;-3.57;100.00;96582.31;1027113;28;20050;-74
2021/11/24 01:18:04;;;;;;;36.33;21.90;;;;;;;-3.62;100.00;96574.31;1034932;28;20539;-72
2021/11/24 01:18:35;;;;;;;37.38;21.92;;;;;;;-3.54;100.00;96588.91;1031469;28;20484;-73
2021/11/24 01:19:05;;;;;;;35.00;20.40;;;;;;;-3.53;100.00;96589.72;1023203;29;20065;-73
2021/11/24 01:19:36;;;;;;;39.07;22.40;;;;;;;-3.53;100.00;96587.16;1027175;28;20046;-73
2021/11/24 01:20:07;;;;;;;36.57;22.20;;;;;;;-3.60;100.00;96581.84;1030307;28;20076;-73
2021/11/24 01:20:37;;;;;;;38.77;22.27;;;;;;;-3.53;100.00;96582.03;1031232;28;20092;-74
2021/11/24 01:21:08;;;;;;;36.67;20.83;;;;;;;-3.58;100.00;96585.06;1030890;28;20026;-73
2021/11/24 01:21:39;;;;;;;41.90;23.87;;;;;;;-3.55;100.00;96582.19;1030741;28;20030;-73
2021/11/24 01:22:09;;;;;;;37.37;21.87;;;;;;;-3.54;100.00;96583.00;1026791;28;20154;-73
2021/11/24 01:22:40;;;;;;;41.63;23.57;;;;;;;-3.52;100.00;96586.19;1035594;28;20115;-73
2021/11/24 01:23:11;;;;;;;40.30;22.73;;;;;;;-3.54;100.00;96580.44;1034951;28;20064;-74
2021/11/24 01:23:41;;;;;;;41.20;23.30;;;;;;;-3.46;100.00;96593.28;1031224;28;20034;-73
2021/11/24 01:24:12;;;;;;;45.03;23.50;;;;;;;-3.46;100.00;96583.00;1027165;28;20022;-73
2021/11/24 01:24:43;;;;;;;39.35;23.15;;;;;;;-3.43;100.00;96587.84;1031078;28;20073;-73
2021/11/24 01:25:13;;;;;;;42.43;23.73;;;;;;;-3.41;100.00;96586.72;1031134;28;20077;-73
2021/11/24 01:25:44;;;;;;;43.63;25.17;;;;;;;-3.36;100.00;96583.69;1023044;28;20479;-72
2021/11/24 01:26:15;;;;;;;42.42;23.13;;;;;;;-3.42;100.00;96569.75;1022782;28;20031;-73
2021/11/24 01:26:45;;;;;;;41.30;24.10;;;;;;;-3.28;100.00;96586.31;1029402;28;20419;-73
2021/11/24 01:27:16;;;;;;;39.00;24.00;;;;;;;-3.35;100.00;96573.28;1026871;28;20517;-73
2021/11/24 01:27:47;;;;;;;48.17;23.93;;;;;;;-3.25;100.00;96590.31;1027333;28;20114;-73
2021/11/24 01:28:17;;;;;;;41.23;24.07;;;;;;;-3.26;100.00;96592.06;1031002;28;20478;-73
2021/11/24 01:28:48;;;;;;;41.03;24.17;;;;;;;-3.33;100.00;96576.50;1027028;28;20069;-74
2021/11/24 01:29:18;;;;;;;42.43;23.70;;;;;;;-3.28;100.00;96578.63;1035451;28;20030;-73
2021/11/24 01:29:49;;;;;;;40.30;23.37;;;;;;;-3.26;100.00;96589.50;1023053;29;20127;-73
2021/11/24 01:30:20;;;;;;;35.13;22.93;;;;;;;-3.26;100.00;96592.06;1022733;29;20027;-73
2021/11/24 01:30:51;;;;;;;44.40;23.13;;;;;;;-3.33;100.00;96583.38;1027489;28;20263;-73
2021/11/24 01:31:21;;;;;;;42.20;23.97;;;;;;;-3.27;100.00;96587.09;1022609;29;20085;-73
2021/11/24 01:31:52;;;;;;;41.93;23.60;;;;;;;-3.28;100.00;96586.31;1025179;28;20479;-73
2021/11/24 01:32:22;;;;;;;40.30;24.23;;;;;;;-3.28;100.00;96590.66;1027592;28;20019;-73
2021/11/24 01:32:53;;;;;;;40.53;23.17;;;;;;;-3.30;100.00;96585.66;1031413;28;20018;-73
2021/11/24 01:33:23;;;;;;;44.40;23.50;;;;;;;-3.32;100.00;96585.00;1039360;28;20670;-73
2021/11/24 01:33:54;;;;;;;39.57;24.03;;;;;;;-3.32;100.00;96587.56;1039098;28;20410;-73
2021/11/24 01:34:24;;;;;;;39.57;23.17;;;;;;;-3.36;100.00;96589.63;1030904;28;20152;-73
2021/11/24 01:34:55;;;;;;;41.80;23.50;;;;;;;-3.37;100.00;96582.91;1027197;28;20062;-73
2021/11/24 01:35:25;;;;;;;39.90;23.90;;;;;;;-3.37;100.00;96582.09;1030302;28;20026;-73
2021/11/24 01:35:56;;;;;;;41.57;23.20;;;;;;;-3.38;100.00;96581.31;1029047;28;20041;-73
2021/11/24 01:36:26;;;;;;;34.57;22.67;;;;;;;-3.45;100.00;96575.19;1031491;28;20389;-73
2021/11/24 01:36:57;;;;;;;41.47;24.07;;;;;;;-3.38;100.00;96583.06;1029015;28;20026;-71
2021/11/24 01:37:27;;;;;;;42.53;23.80;;;;;;;-3.41;100.00;96575.69;1031582;28;20108;-71
2021/11/24 01:37:58;;;;;;;36.13;22.33;;;;;;;-3.41;100.00;96580.81;1031108;28;20037;-71
2021/11/24 01:38:29;;;;;;;37.90;22.73;;;;;;;-3.44;100.00;96576.78;1035011;28;20464;-72
2021/11/24 01:38:59;;;;;;;43.17;24.60;;;;;;;-3.41;100.00;96573.09;1031224;28;20034;-72
2021/11/24 01:39:30;;;;;;;39.37;23.70;;;;;;;-3.41;100.00;96575.69;1027001;28;20341;-73
2021/11/24 01:40:01;;;;;;;37.07;23.63;;;;;;;-3.43;100.00;96575.00;1031070;28;20548;-72
2021/11/24 01:40:31;;;;;;;40.90;23.50;;;;;;;-3.43;100.00;96577.56;1031231;28;20018;-73
2021/11/24 01:41:02;;;;;;;36.73;22.80;;;;;;;-3.48;100.00;96567.78;1030221;28;20035;-74
2021/11/24 01:41:32;;;;;;;44.47;23.37;;;;;;;-3.46;100.00;96572.75;1023326;29;20031;-74
2021/11/24 01:42:03;;;;;;;38.80;22.73;;;;;;;-3.48;100.00;96572.13;1026724;28;20518;-73
2021/11/24 01:42:34;;;;;;;40.70;23.87;;;;;;;-3.47;100.00;96576.28;1026843;28;20111;-73
2021/11/24 01:43:08;;;;;;;42.20;23.83;;;;;;;-3.49;100.00;96570.50;1035040;28;20026;-73
2021/11/24 01:43:39;;;;;;;38.97;23.88;;;;;;;-3.58;100.00;96562.78;1032198;28;20034;-73
2021/11/24 01:44:22;;;;;;;38.47;23.57;;;;;;;-3.51;100.00;96575.78;1027109;28;20125;-73
2021/11/24 01:44:53;;;;;;;40.78;22.55;;;;;;;-3.54;100.00;96576.09;1022799;29;20027;-73
2021/11/24 01:45:23;;;;;;;38.97;22.23;;;;;;;-3.54;100.00;96570.97;1024329;28;20028;-73
2021/11/24 01:45:54;;;;;;;41.80;22.93;;;;;;;-3.57;100.00;96568.72;1025258;28;20027;-73
2021/11/24 01:46:25;;;;;;;42.33;24.20;;;;;;;-3.63;100.00;96562.41;1023195;28;20125;-73
2021/11/24 01:46:58;;;;;;;38.72;22.63;;;;;;;-3.61;100.00;96563.09;1027453;28;20050;-72
2021/11/24 01:47:28;;;;;;;40.45;23.00;;;;;;;-3.58;100.00;96570.47;1030863;28;20041;-73
2021/11/24 01:47:59;;;;;;;41.93;23.53;;;;;;;-3.60;100.00;96572.38;1027150;28;20074;-73
2021/11/24 01:48:29;;;;;;;40.77;22.93;;;;;;;-3.60;100.00;96566.44;1027200;28;20118;-74
2021/11/24 01:49:00;;;;;;;38.23;22.83;;;;;;;-3.62;100.00;96564.03;1026302;28;20027;-73
2021/11/24 01:49:31;;;;;;;43.40;24.73;;;;;;;-3.65;100.00;96559.22;1030925;28;20085;-73
2021/11/24 01:50:02;;;;;;;40.63;23.50;;;;;;;-3.62;100.00;96558.91;1031632;28;20065;-74
2021/11/24 01:50:33;;;;;;;43.33;24.33;;;;;;;-3.60;100.00;96569.81;1030877;28;20033;-72
2021/11/24 01:51:04;;;;;;;40.63;24.90;;;;;;;-3.60;100.00;96569.00;1022427;28;20050;-73
2021/11/24 01:51:34;;;;;;;43.60;24.83;;;;;;;-3.61;100.00;96565.66;1023341;28;20510;-73
2021/11/24 01:52:05;;;;;;;38.20;23.00;;;;;;;-3.64;100.00;96557.47;1027428;28;20395;-74
2021/11/24 01:52:35;;;;;;;44.23;24.63;;;;;;;-3.62;100.00;96569.19;1032606;28;20112;-72
2021/11/24 01:53:06;;;;;;;40.07;23.83;;;;;;;-3.61;100.00;96569.97;1035022;28;20112;-74
2021/11/24 01:53:36;;;;;;;37.83;23.20;;;;;;;-3.61;100.00;96560.53;1026784;28;20516;-73
2021/11/24 01:54:07;;;;;;;43.23;24.33;;;;;;;-3.62;100.00;96566.63;1027937;28;20038;-73
2021/11/24 01:54:37;;;;;;;47.13;25.40;;;;;;;-3.62;100.00;96558.91;1030920;28;20073;-73
2021/11/24 01:55:09;;;;;;;39.33;23.90;;;;;;;-3.64;100.00;96549.75;1021359;29;20486;-73
2021/11/24 01:55:40;;;;;;;39.83;22.95;;;;;;;-3.67;100.00;96556.00;1023149;28;20034;-73
2021/11/24 01:56:10;;;;;;;43.57;24.00;;;;;;;-3.63;100.00;96557.28;1025613;28;20031;-73
2021/11/24 01:56:41;;;;;;;39.23;22.47;;;;;;;-3.61;100.00;96552.81;1023581;29;20031;-72
2021/11/24 01:57:11;;;;;;;37.70;23.63;;;;;;;-3.64;100.00;96549.75;1023193;28;20031;-73
2021/11/24 01:57:44;;;;;;;39.23;22.53;;;;;;;-3.60;100.00;96561.31;1030434;28;20529;-73
2021/11/24 01:58:15;;;;;;;44.42;24.65;;;;;;;-3.59;100.00;96557.78;1035660;28;20168;-73
2021/11/24 01:58:45;;;;;;;43.83;24.43;;;;;;;-3.59;100.00;96558.63;1023219;29;20309;-73
2021/11/24 01:59:16;;;;;;;44.00;23.67;;;;;;;-3.58;100.00;96555.09;1023926;29;20498;-73
2021/11/24 01:59:46;;;;;;;41.77;24.30;;;;;;;-3.56;100.00;96552.34;1034978;28;20034;-73
2021/11/24 02:00:25;;;;;;;39.80;23.27;;;;;;;-3.58;100.00;96549.16;1031573;28;20050;-73
2021/11/24 02:00:55;;;;;;;41.33;22.83;;;;;;;-3.59;100.00;96550.09;1027343;28;20034;-74
2021/11/24 02:01:26;;;;;;;38.33;23.37;;;;;;;-3.58;100.00;96547.38;1030859;28;20522;-73
2021/11/24 02:01:56;;;;;;;40.50;23.60;;;;;;;-3.59;100.00;96547.53;1031707;28;20458;-73
2021/11/24 02:02:27;;;;;;;40.10;22.70;;;;;;;-3.62;100.00;96547.84;1031568;28;20057;-73
2021/11/24 02:02:58;;;;;;;39.00;22.30;;;;;;;-3.61;100.00;96545.13;1033378;28;20046;-73
2021/11/24 02:03:28;;;;;;;41.10;23.90;;;;;;;-3.61;100.00;96542.56;1035893;28;20029;-73
2021/11/24 02:03:59;;;;;;;38.60;23.93;;;;;;;-3.59;100.00;96538.09;1031489;28;20646;-73
2021/11/24 02:04:29;;;;;;;42.00;24.40;;;;;;;-3.60;100.00;96539.03;1032255;28;20026;-73
2021/11/24 02:05:00;;;;;;;37.20;22.70;;;;;;;-3.60;100.00;96544.16;1036041;28;20127;-73
2021/11/24 02:05:30;;;;;;;38.37;23.90;;;;;;;-3.59;100.00;96542.41;1031447;28;20034;-72
2021/11/24 02:06:01;;;;;;;38.23;23.00;;;;;;;-3.58;100.00;96544.81;1039583;28;20091;-73
2021/11/24 02:06:31;;;;;;;39.63;24.30;;;;;;;-3.61;100.00;96534.06;1035164;28;20056;-73
2021/11/24 02:07:02;;;;;;;41.57;24.13;;;;;;;-3.57;100.00;96535.38;1027554;28;20030;-73
2021/11/24 02:07:32;;;;;;;41.73;22.90;;;;;;;-3.58;100.00;96533.78;1031692;28;20517;-72
2021/11/24 02:08:03;;;;;;;39.47;22.63;;;;;;;-3.59;100.00;96532.97;1031139;28;20124;-72
2021/11/24 02:08:34;;;;;;;42.57;24.23;;;;;;;-3.60;100.00;96536.47;1027575;28;20469;-73
2021/11/24 02:09:05;;;;;;;45.10;24.87;;;;;;;-3.61;100.00;96532.31;1031810;28;20030;-73
2021/11/24 02:09:35;;;;;;;38.90;23.13;;;;;;;-3.59;100.00;96530.41;1023473;29;20023;-72
2021/11/24 02:10:06;;;;;;;39.03;23.17;;;;;;;-3.59;100.00;96532.97;1023123;29;20027;-73
2021/11/24 02:10:36;;;;;;;39.53;23.60;;;;;;;-3.61;100.00;96529.75;1023991;29;20074;-73
2021/11/24 02:11:07;;;;;;;39.07;22.77;;;;;;;-3.60;100.00;96528.78;1028052;28;20525;-73
2021/11/24 02:11:39;;;;;;;35.93;22.53;;;;;;;-3.63;100.00;96529.06;1026902;28;20494;-73
2021/11/24 02:12:13;;;;;;;37.35;22.30;;;;;;;-3.68;100.00;96523.63;1031136;28;20073;-73
2021/11/24 02:12:44;;;;;;;38.53;23.20;;;;;;;-3.62;100.00;96530.72;1029409;28;20555;-72
2021/11/24 02:13:14;;;;;;;38.50;22.53;;;;;;;-3.64;100.00;96532.59;1031387;28;20104;-73
2021/11/24 02:13:45;;;;;;;44.20;24.57;;;;;;;-3.64;100.00;96530.03;1036168;28;20389;-73
2021/11/24 02:14:16;;;;;;;39.67;24.00;;;;;;;-3.66;100.00;96526.81;1035341;28;20026;-73
2021/11/24 02:14:46;;;;;;;41.55;24.52;;;;;;;-3.72;100.00;96521.50;1024894;28;20098;-73
2021/11/24 02:15:17;;;;;;;41.00;24.33;;;;;;;-3.65;100.00;96525.88;1035367;28;20484;-71
2021/11/24 02:15:48;;;;;;;41.03;22.87;;;;;;;-3.66;100.00;96520.91;1035708;28;20033;-73
2021/11/24 02:16:18;;;;;;;38.47;23.73;;;;;;;-3.76;100.00;96515.09;1032310;28;20034;-73
2021/11/24 02:16:50;;;;;;;39.20;22.77;;;;;;;-3.75;100.00;96517.50;1023619;28;20027;-74
2021/11/24 02:17:20;;;;;;;41.25;23.23;;;;;;;-3.71;100.00;96529.06;1024226;28;20031;-73
2021/11/24 02:17:51;;;;;;;40.43;23.30;;;;;;;-3.71;100.00;96523.94;1029114;28;20462;-73
2021/11/24 02:18:22;;;;;;;42.83;23.67;;;;;;;-3.70;100.00;96524.72;1030981;28;20034;-74
2021/11/24 02:18:52;;;;;;;42.27;23.77;;;;;;;-3.71;100.00;96523.94;1027622;28;20490;-73
2021/11/24 02:19:28;;;;;;;36.50;22.80;;;;;;;-3.74;100.00;96519.09;1027395;28;20482;-73
2021/11/24 02:19:59;;;;;;;36.97;22.85;;;;;;;-3.69;100.00;96527.16;1024696;28;20023;-72